Pagrindinis puslapis
METAR-TAF:

METAR-TAF

Oro uostai :

Džibučio

Džibutis, Džibutis

platuma: 11-33N, ilguma: 043-10E, Aukštis: 49 m

Dabartinis oras

Ataskaita buvo paskelbta 12 valandos ir 58 minutes, ne 16:00 UTC
Vėjas 8 kt iš Rytų
Temperatūra 28°C
Drėgmė 79%
Slėgis 1013 hPa
Matomumas 10 km arba daugiau
Mažai debesys ne aukštis 2300 ft

METAR: HDAM 211600Z 10008KT 9999 FEW023 28/24 Q1013

Laikas: 07:58 (04:58 UTC)

Prognozė

Ataskaita buvo paskelbta 5 valandos ir 58 minutes, ne 23:00 UTC
Prognozė galioja nuo 22 metu 00 UTC su 22 metu 24 UTC
Vėjas kt iš Šiaurės
Išsisklaidę debesys ne aukštis 2000 ft
Išsisklaidę debesys ne aukštis 3000 ft
Tapsmas
nuo 22 metu 06 UTC su 22 metu 12 UTC
Vėjas 10 kt iš Rytų
Su prošvaistėmis ne aukštis 2300 ft
Išsisklaidę debesys ne aukštis 3000 ft
Tapsmas
nuo 22 metu 15 UTC su 22 metu 18 UTC
Vėjas 5 kt nuo kintamojo kryptimis
Išsisklaidę debesys ne aukštis 2000 ft

TAF: HDAM 212300Z 2200/2224 00000KT 9/9 SCT020 SCT030 BECMG 2206/2212 08010KT 8000-SHRA BKN023 SCT030 BECMG 2215/2218 VRB05KT SCT020

Orai ataskaitas ir orų prognozės (METAR, TAF).

turimą stotys yra geltonos ir raudonos taškus žemėlapyje.

Perkelti pele per norėdami pamatyti stoties vardą.

Tada spustelėkite, norėdami matyti oro stebėjimo ir prognozės.

Norėdami pakeisti žemėlapį: spustelėkite ant žalios mygtukų su juodo kryžiaus žemyn,; žalią mygtuką su brūkšneliu, jei norite nutolinti; arba žalių rodyklių gretimoms žemėlapius.


METAR-TAF: